Time;durP1;ratioP1;P1;durP2;ratioP2;P2;SDS_P1;SDS_P2;PMS_P1;PMS_P2;Temp;Humidity;BMP_temperature;BMP_pressure;BME280_temperature;BME280_humidity;BME280_pressure;Samples;Min_cycle;Max_cycle;Signal;HPM_P1;HPM_P2
2021/01/10 00:01:30;;;;;;;;;;;;;;;28.75;23.49;101177.63;5099412;28;847;-35
2021/01/10 00:03:57;;;;;;;;;;;;;;;29.76;22.19;101181.78;5098918;28;772;-35
2021/01/10 00:06:22;;;;;;;;;;;;;;;30.05;22.03;101176.47;5098567;28;1480;-44
2021/01/10 00:08:47;;;;;;;;;;;;;;;30.29;21.60;101182.59;5099060;28;807;-33
2021/01/10 00:11:13;;;;;;;;;;;;;;;29.94;22.08;101172.41;5098703;28;1976;-33
2021/01/10 00:13:38;;;;;;;;;;;;;;;29.64;22.48;101165.19;5099255;28;963;-34
2021/01/10 00:16:03;;;;;;;;;;;;;;;29.72;22.45;101172.38;5099015;28;741;-38
2021/01/10 00:18:29;;;;;;;;;;;;;;;30.00;22.16;101179.75;5098429;28;1174;-33
2021/01/10 00:20:54;;;;;;;;;;;;;;;30.27;21.70;101182.78;5099043;28;747;-38
2021/01/10 00:23:19;;;;;;;;;;;;;;;30.24;21.67;101179.59;5098423;28;945;-35
2021/01/10 00:25:44;;;;;;;;;;;;;;;29.70;22.58;101196.09;5098480;28;1296;-30
2021/01/10 00:28:10;;;;;;;;;;;;;;;29.29;23.16;101210.97;5098948;28;760;-44
2021/01/10 00:30:35;;;;;;;;;;;;;;;29.94;22.28;101213.09;5098468;28;1983;-34
2021/01/10 00:33:00;;;;;;;;;;;;;;;29.95;22.04;101225.59;5098363;28;806;-43
2021/01/10 00:35:26;;;;;;;;;;;;;;;29.58;22.79;101222.81;5098463;28;870;-33
2021/01/10 00:37:55;;;;;;;;;;;;;;;29.54;23.08;101222.38;5097992;28;1020;-33
2021/01/10 00:40:21;;;;;;;;;;;;;;;29.84;22.57;101226.94;5098611;28;790;-33
2021/01/10 00:42:46;;;;;;;;;;;;;;;29.56;22.69;101223.00;5098338;28;775;-32
2021/01/10 00:45:12;;;;;;;;;;;;;;;28.62;24.21;101216.16;5098334;28;724;-32
2021/01/10 00:47:37;;;;;;;;;;;;;;;29.69;22.97;101214.28;5098531;28;797;-30
2021/01/10 00:50:03;;;;;;;;;;;;;;;30.13;22.20;101219.75;5097954;28;1902;-33
2021/01/10 00:52:29;;;;;;;;;;;;;;;30.10;22.23;101230.13;5098118;28;997;-43
2021/01/10 00:54:54;;;;;;;;;;;;;;;29.66;22.46;101235.50;5098379;28;772;-34
2021/01/10 00:57:19;;;;;;;;;;;;;;;28.88;23.75;101228.47;5097994;28;786;-34
2021/01/10 00:59:45;;;;;;;;;;;;;;;29.81;22.83;101239.00;5097973;28;855;-31
2021/01/10 01:02:13;;;;;;;;;;;;;;;30.14;22.00;101248.56;5098285;28;802;-34
2021/01/10 01:04:38;;;;;;;;;;;;;;;30.16;22.24;101243.78;5097915;28;771;-40
2021/01/10 01:07:04;;;;;;;;;;;;;;;29.70;22.68;101237.63;5097299;28;933;-35
2021/01/10 01:09:29;;;;;;;;;;;;;;;28.98;23.71;101239.06;5098010;28;779;-45
2021/01/10 01:11:54;;;;;;;;;;;;;;;29.53;21.67;101234.25;5098233;28;1972;-34
2021/01/10 01:14:19;;;;;;;;;;;;;;;29.58;22.08;101231.81;5097479;28;783;-35
2021/01/10 01:16:45;;;;;;;;;;;;;;;29.90;21.56;101238.88;5098146;28;1213;-35
2021/01/10 01:19:10;;;;;;;;;;;;;;;29.58;22.18;101229.09;5097390;28;835;-44
2021/01/10 01:21:35;;;;;;;;;;;;;;;29.67;22.04;101235.28;5097067;28;1004;-32
2021/01/10 01:24:01;;;;;;;;;;;;;;;29.63;22.01;101209.59;5097689;28;1329;-44
2021/01/10 01:26:26;;;;;;;;;;;;;;;29.19;22.30;101203.13;5097372;28;860;-33
2021/01/10 01:28:51;;;;;;;;;;;;;;;29.65;21.73;101195.84;5097506;28;790;-34
2021/01/10 01:31:18;;;;;;;;;;;;;;;29.87;21.55;101196.72;5097741;28;1917;-35
2021/01/10 01:33:43;;;;;;;;;;;;;;;29.70;21.89;101183.41;5096878;28;848;-35
2021/01/10 01:36:09;;;;;;;;;;;;;;;29.68;21.56;101190.88;5097791;28;775;-35
2021/01/10 01:38:35;;;;;;;;;;;;;;;29.27;21.91;101181.38;5096994;28;965;-35
2021/01/10 01:41:00;;;;;;;;;;;;;;;29.35;22.08;101188.53;5097335;28;752;-45
2021/01/10 01:43:25;;;;;;;;;;;;;;;29.74;21.53;101180.31;5097246;28;759;-35
2021/01/10 01:45:51;;;;;;;;;;;;;;;29.91;21.27;101176.31;5096726;28;785;-45
2021/01/10 01:48:16;;;;;;;;;;;;;;;28.90;22.79;101183.94;5096828;28;799;-44
2021/01/10 01:50:41;;;;;;;;;;;;;;;29.58;22.00;101191.16;5097533;28;1972;-45
2021/01/10 01:53:06;;;;;;;;;;;;;;;29.68;21.55;101201.72;5097151;28;942;-45
2021/01/10 01:55:32;;;;;;;;;;;;;;;29.51;21.67;101198.34;5096851;28;760;-45
2021/01/10 01:57:58;;;;;;;;;;;;;;;28.13;23.38;101196.56;5095748;28;826;-45
2021/01/10 02:00:23;;;;;;;;;;;;;;;28.99;22.62;101205.53;5097143;28;865;-41
2021/01/10 02:02:48;;;;;;;;;;;;;;;28.89;22.58;101186.81;5096620;28;774;-32
2021/01/10 02:05:14;;;;;;;;;;;;;;;29.69;21.55;101200.72;5097489;28;878;-42
2021/01/10 02:07:57;;;;;;;;;;;;;;;28.45;23.14;101210.88;5096744;28;949;-33
2021/01/10 02:10:26;;;;;;;;;;;;;;;29.36;22.12;101205.66;5095182;28;1906;-34
2021/01/10 02:12:52;;;;;;;;;;;;;;;29.37;21.79;101219.03;5097108;28;743;-45
2021/01/10 02:15:21;;;;;;;;;;;;;;;28.96;22.32;101222.97;5096623;28;838;-31
2021/01/10 02:17:46;;;;;;;;;;;;;;;28.65;22.93;101204.97;5096410;28;1090;-38
2021/01/10 02:20:12;;;;;;;;;;;;;;;28.97;22.52;101213.84;5096864;28;849;-32
2021/01/10 02:22:56;;;;;;;;;;;;;;;29.66;21.74;101208.38;5094318;28;1069;-34
2021/01/10 02:25:22;;;;;;;;;;;;;;;29.36;22.01;101214.63;5096030;28;1319;-33
2021/01/10 02:27:47;;;;;;;;;;;;;;;29.05;22.04;101208.34;5095693;28;764;-34
2021/01/10 02:30:12;;;;;;;;;;;;;;;28.56;22.94;101196.09;5096372;28;1984;-43
2021/01/10 02:32:38;;;;;;;;;;;;;;;28.84;22.83;101193.63;5096451;28;800;-35
2021/01/10 02:35:16;;;;;;;;;;;;;;;29.29;22.38;101201.00;5096627;28;890;-34
2021/01/10 02:38:01;;;;;;;;;;;;;;;29.81;21.38;101209.16;5096435;28;970;-35
2021/01/10 02:40:29;;;;;;;;;;;;;;;28.88;22.71;101213.06;5096259;28;779;-34
2021/01/10 02:43:09;;;;;;;;;;;;;;;29.37;21.80;101223.59;5096564;28;858;-37
2021/01/10 02:45:34;;;;;;;;;;;;;;;28.98;22.21;101225.53;5095430;28;842;-42
2021/01/10 02:48:00;;;;;;;;;;;;;;;28.94;22.41;101233.16;5095124;28;790;-30
2021/01/10 02:50:26;;;;;;;;;;;;;;;29.24;21.96;101230.50;5096305;28;1917;-33
2021/01/10 02:52:51;;;;;;;;;;;;;;;29.29;22.10;101224.53;5096022;28;949;-33
2021/01/10 02:55:17;;;;;;;;;;;;;;;29.52;21.60;101235.28;5096499;28;819;-43
2021/01/10 02:57:47;;;;;;;;;;;;;;;29.16;21.72;101242.25;5100537;28;851;-44
2021/01/10 03:00:12;;;;;;;;;;;;;;;28.73;22.76;101248.22;5099203;28;1619;-33
2021/01/10 03:02:38;;;;;;;;;;;;;;;29.33;21.97;101248.34;5098831;28;834;-34
2021/01/10 03:05:06;;;;;;;;;;;;;;;29.62;21.44;101253.16;5099442;28;767;-44
2021/01/10 03:07:33;;;;;;;;;;;;;;;29.74;21.13;101242.66;5098452;28;910;-32
2021/01/10 03:09:58;;;;;;;;;;;;;;;29.18;21.87;101240.22;5099882;28;1963;-33
2021/01/10 03:12:26;;;;;;;;;;;;;;;28.58;22.73;101245.44;5099017;28;779;-37
2021/01/10 03:14:52;;;;;;;;;;;;;;;28.17;23.40;101233.88;5100413;28;795;-34
2021/01/10 03:17:40;;;;;;;;;;;;;;;28.35;23.02;101241.75;5099966;28;1307;-33
2021/01/10 03:20:06;;;;;;;;;;;;;;;28.36;23.18;101245.28;5089073;28;1159;-32
2021/01/10 03:22:32;;;;;;;;;;;;;;;29.15;22.46;101237.03;5099898;28;993;-32
2021/01/10 03:24:57;;;;;;;;;;;;;;;29.29;22.34;101246.22;5099674;28;1066;-44
2021/01/10 03:27:22;;;;;;;;;;;;;;;29.20;21.93;101238.16;5100037;28;866;-44
2021/01/10 03:29:48;;;;;;;;;;;;;;;29.13;22.30;101252.66;5099927;28;787;-33
2021/01/10 03:32:13;;;;;;;;;;;;;;;28.56;23.29;101239.41;5099503;28;1905;-32
2021/01/10 03:34:38;;;;;;;;;;;;;;;28.83;22.69;101239.84;5099926;28;807;-32
2021/01/10 03:37:04;;;;;;;;;;;;;;;28.57;22.97;101244.63;5099444;28;965;-39
2021/01/10 03:39:30;;;;;;;;;;;;;;;28.72;22.93;101252.81;5099213;28;1046;-31
2021/01/10 03:41:56;;;;;;;;;;;;;;;29.41;22.27;101254.72;5100154;28;831;-34
2021/01/10 03:44:21;;;;;;;;;;;;;;;29.32;22.04;101246.69;5099755;28;840;-45
2021/01/10 03:46:46;;;;;;;;;;;;;;;28.80;22.91;101243.75;5099504;28;832;-32
2021/01/10 03:49:11;;;;;;;;;;;;;;;28.98;22.58;101239.91;5099670;28;766;-34
2021/01/10 03:51:37;;;;;;;;;;;;;;;29.36;22.28;101239.03;5099178;28;1906;-34
2021/01/10 03:54:02;;;;;;;;;;;;;;;29.07;22.41;101243.38;5099066;28;810;-33
2021/01/10 03:56:27;;;;;;;;;;;;;;;28.83;23.12;101239.84;5099831;28;727;-30
2021/01/10 03:58:53;;;;;;;;;;;;;;;29.31;22.37;101236.84;5099432;28;831;-31
2021/01/10 04:01:18;;;;;;;;;;;;;;;29.36;21.97;101243.59;5098849;28;763;-33
2021/01/10 04:03:43;;;;;;;;;;;;;;;29.11;22.41;101251.97;5099387;28;858;-33
2021/01/10 04:06:09;;;;;;;;;;;;;;;28.48;23.59;101245.69;5099755;28;818;-33
2021/01/10 04:08:34;;;;;;;;;;;;;;;29.18;22.68;101247.50;5097269;28;949;-41
2021/01/10 04:10:59;;;;;;;;;;;;;;;29.18;22.28;101245.63;5099225;28;1902;-35
2021/01/10 04:13:24;;;;;;;;;;;;;;;27.40;19.97;101249.72;5099540;28;850;-36
2021/01/10 04:15:50;;;;;;;;;;;;;;;25.05;22.35;101244.69;5098708;28;762;-44
2021/01/10 04:18:15;;;;;;;;;;;;;;;26.93;24.86;101249.41;5098981;28;1103;-42
2021/01/10 04:20:40;;;;;;;;;;;;;;;27.52;24.36;101261.00;5099147;28;798;-38
2021/01/10 04:23:05;;;;;;;;;;;;;;;27.42;24.24;101263.03;5097602;28;920;-45
2021/01/10 04:25:31;;;;;;;;;;;;;;;28.17;23.67;101279.00;5098821;28;1106;-39
2021/01/10 04:27:56;;;;;;;;;;;;;;;28.27;23.15;101295.00;5098830;28;791;-42
2021/01/10 04:30:21;;;;;;;;;;;;;;;25.47;20.92;101277.28;5098349;28;1919;-43
2021/01/10 04:32:47;;;;;;;;;;;;;;;23.92;21.80;101288.88;5098869;28;747;-45
2021/01/10 04:35:12;;;;;;;;;;;;;;;23.10;22.73;101291.03;5098824;28;791;-43
2021/01/10 04:37:37;;;;;;;;;;;;;;;22.64;22.20;101293.41;5097548;28;973;-43
2021/01/10 04:40:03;;;;;;;;;;;;;;;22.00;22.92;101286.44;5098779;28;854;-43
2021/01/10 04:42:28;;;;;;;;;;;;;;;22.40;22.28;101291.94;5098922;28;819;-44
2021/01/10 04:44:54;;;;;;;;;;;;;;;22.63;22.14;101297.94;5098119;28;755;-43
2021/01/10 04:47:19;;;;;;;;;;;;;;;22.60;24.08;101300.03;5098538;28;747;-42
2021/01/10 04:49:44;;;;;;;;;;;;;;;20.97;25.96;101291.59;5098391;28;814;-38
2021/01/10 04:52:10;;;;;;;;;;;;;;;20.83;25.02;101290.88;5094215;28;1964;-36
2021/01/10 04:54:35;;;;;;;;;;;;;;;20.39;25.25;101299.75;5095696;28;839;-36
2021/01/10 04:57:02;;;;;;;;;;;;;;;19.57;26.71;101306.97;5097772;28;843;-36
2021/01/10 04:59:27;;;;;;;;;;;;;;;22.20;23.35;101307.13;5097004;28;1009;-36
2021/01/10 05:01:53;;;;;;;;;;;;;;;24.39;21.10;101311.31;5096540;28;895;-36
2021/01/10 05:04:18;;;;;;;;;;;;;;;25.39;20.19;101314.94;5096298;28;970;-37
2021/01/10 05:06:44;;;;;;;;;;;;;;;25.82;19.91;101309.66;5097256;28;933;-38
2021/01/10 05:09:09;;;;;;;;;;;;;;;26.35;19.83;101303.31;5096097;28;1313;-31
2021/01/10 05:11:35;;;;;;;;;;;;;;;26.67;19.96;101306.25;5098081;28;1973;-40
2021/01/10 05:14:00;;;;;;;;;;;;;;;26.71;20.22;101294.13;5098295;28;811;-38
2021/01/10 05:16:29;;;;;;;;;;;;;;;27.04;20.09;101301.41;5097509;28;1098;-34
2021/01/10 05:18:55;;;;;;;;;;;;;;;26.48;21.18;101298.28;5096248;28;793;-38
2021/01/10 05:21:23;;;;;;;;;;;;;;;27.24;20.66;101294.63;5097096;28;821;-32
2021/01/10 05:23:51;;;;;;;;;;;;;;;27.31;20.46;101302.09;5097157;28;1297;-35
2021/01/10 05:26:17;;;;;;;;;;;;;;;27.56;20.68;101296.63;5097626;28;783;-35
2021/01/10 05:28:42;;;;;;;;;;;;;;;27.71;20.43;101294.09;5097596;28;790;-34
2021/01/10 05:31:08;;;;;;;;;;;;;;;27.81;20.50;101312.81;5095564;28;1906;-39
2021/01/10 05:33:47;;;;;;;;;;;;;;;27.89;20.67;101317.34;5097191;28;710;-39
2021/01/10 05:36:12;;;;;;;;;;;;;;;27.91;20.54;101304.50;5097111;28;954;-33
2021/01/10 05:38:37;;;;;;;;;;;;;;;28.03;20.60;101311.19;5095241;28;1284;-35
2021/01/10 05:41:09;;;;;;;;;;;;;;;27.82;20.83;101314.47;5097534;28;806;-36
2021/01/10 05:43:34;;;;;;;;;;;;;;;27.58;21.46;101303.53;5097371;28;825;-34
2021/01/10 05:46:00;;;;;;;;;;;;;;;27.87;21.37;101299.44;5096970;28;759;-36
2021/01/10 05:48:25;;;;;;;;;;;;;;;28.35;21.10;101286.88;5096016;28;766;-35
2021/01/10 05:50:51;;;;;;;;;;;;;;;28.34;21.17;101275.22;5095562;28;2023;-35
2021/01/10 05:53:22;;;;;;;;;;;;;;;28.53;20.86;101270.34;5096723;28;953;-34
2021/01/10 05:55:54;;;;;;;;;;;;;;;28.72;20.65;101263.63;5097165;28;810;-35
2021/01/10 05:58:19;;;;;;;;;;;;;;;28.83;20.71;101280.44;5097336;28;775;-39
2021/01/10 06:00:45;;;;;;;;;;;;;;;28.69;21.20;101290.22;5095479;28;767;-41
2021/01/10 06:03:10;;;;;;;;;;;;;;;28.01;22.08;101294.28;5096016;28;755;-32
2021/01/10 06:05:36;;;;;;;;;;;;;;;28.60;21.27;101298.41;5095659;28;867;-34
2021/01/10 06:08:01;;;;;;;;;;;;;;;29.00;21.02;101304.72;5094924;28;954;-43
2021/01/10 06:10:27;;;;;;;;;;;;;;;28.12;22.01;101314.72;5096849;28;2008;-35
2021/01/10 06:13:02;;;;;;;;;;;;;;;28.91;21.30;101312.06;5096755;28;775;-36
2021/01/10 06:15:27;;;;;;;;;;;;;;;29.23;21.20;101333.66;5096658;28;786;-35
2021/01/10 06:17:52;;;;;;;;;;;;;;;29.15;21.13;101332.69;5095221;28;1139;-41
2021/01/10 06:20:24;;;;;;;;;;;;;;;28.71;21.76;101326.06;5096690;28;775;-32
2021/01/10 06:22:49;;;;;;;;;;;;;;;27.72;23.23;101320.94;5095901;28;942;-36
2021/01/10 06:25:14;;;;;;;;;;;;;;;28.74;21.81;101323.00;5096597;28;1268;-40
2021/01/10 06:27:40;;;;;;;;;;;;;;;29.41;21.24;101333.31;5095743;28;817;-35
2021/01/10 06:30:06;;;;;;;;;;;;;;;28.82;21.96;101341.06;5094702;28;1913;-35
2021/01/10 06:32:32;;;;;;;;;;;;;;;29.31;21.24;101350.66;5095283;28;774;-41
2021/01/10 06:34:57;;;;;;;;;;;;;;;29.32;21.17;101354.22;5095388;28;810;-42
2021/01/10 06:37:22;;;;;;;;;;;;;;;29.21;21.21;101359.03;5094733;28;1021;-34
2021/01/10 06:39:48;;;;;;;;;;;;;;;28.90;22.02;101353.69;5095214;28;779;-34
2021/01/10 06:42:14;;;;;;;;;;;;;;;29.30;21.46;101356.25;5096402;28;779;-32
2021/01/10 06:44:40;;;;;;;;;;;;;;;29.11;21.55;101371.16;5096192;28;861;-33
2021/01/10 06:47:05;;;;;;;;;;;;;;;28.21;22.07;101366.91;5096679;28;818;-34
2021/01/10 06:49:31;;;;;;;;;;;;;;;28.93;21.65;101370.41;5096107;28;875;-43
2021/01/10 06:51:58;;;;;;;;;;;;;;;29.20;21.20;101378.19;5096054;28;1964;-34
2021/01/10 06:54:23;;;;;;;;;;;;;;;29.08;21.23;101377.78;5096172;28;819;-37
2021/01/10 06:56:49;;;;;;;;;;;;;;;28.28;22.77;101378.69;5096484;28;846;-33
2021/01/10 06:59:15;;;;;;;;;;;;;;;28.42;22.69;101374.44;5096087;28;731;-34
2021/01/10 07:01:50;;;;;;;;;;;;;;;29.17;21.41;101387.53;5094986;28;870;-30
2021/01/10 07:04:15;;;;;;;;;;;;;;;28.32;22.72;101399.00;5096422;28;843;-32
2021/01/10 07:06:47;;;;;;;;;;;;;;;28.84;22.35;101404.81;5095522;28;916;-32
2021/01/10 07:09:12;;;;;;;;;;;;;;;28.98;21.87;101391.56;5096082;28;866;-32
2021/01/10 07:11:38;;;;;;;;;;;;;;;28.90;22.02;101392.44;5096299;28;1966;-38
2021/01/10 07:14:03;;;;;;;;;;;;;;;29.55;21.17;101385.84;5096272;28;779;-35
2021/01/10 07:16:28;;;;;;;;;;;;;;;29.67;21.17;101383.56;5095978;28;1118;-34
2021/01/10 07:18:54;;;;;;;;;;;;;;;29.56;21.39;101382.13;5096095;28;870;-38
2021/01/10 07:21:29;;;;;;;;;;;;;;;29.21;21.63;101393.44;5095266;28;954;-32
2021/01/10 07:24:13;;;;;;;;;;;;;;;28.92;22.40;101398.53;5095900;28;1076;-43
2021/01/10 07:26:42;;;;;;;;;;;;;;;29.11;21.90;101409.94;5096137;28;766;-37
2021/01/10 07:29:26;;;;;;;;;;;;;;;27.97;23.71;101407.38;5095888;28;751;-36
2021/01/10 07:32:11;;;;;;;;;;;;;;;29.25;22.42;101393.91;5095804;28;1956;-36
2021/01/10 07:34:37;;;;;;;;;;;;;;;29.49;21.94;101392.00;5094744;28;1253;-41
2021/01/10 07:37:05;;;;;;;;;;;;;;;29.65;21.63;101383.75;5094843;28;1127;-41
2021/01/10 07:39:31;;;;;;;;;;;;;;;29.24;21.99;101376.81;5095884;28;1225;-42
2021/01/10 07:42:08;;;;;;;;;;;;;;;28.62;23.07;101375.84;5095638;28;1257;-33
2021/01/10 07:44:46;;;;;;;;;;;;;;;29.21;22.33;101369.88;5097385;28;1139;-43
2021/01/10 07:47:11;;;;;;;;;;;;;;;29.02;22.71;101367.69;5097635;28;1250;-39
2021/01/10 07:49:50;;;;;;;;;;;;;;;29.18;22.62;101380.25;5099019;28;1348;-39
2021/01/10 07:52:15;;;;;;;;;;;;;;;29.13;22.52;101377.25;5097326;28;1901;-36
2021/01/10 07:54:47;;;;;;;;;;;;;;;29.20;21.75;101387.19;5098114;28;1285;-39
2021/01/10 07:57:22;;;;;;;;;;;;;;;29.33;21.92;101383.84;5099102;28;866;-37
2021/01/10 08:00:03;;;;;;;;;;;;;;;29.15;21.88;101388.72;5099289;28;787;-37
2021/01/10 08:02:47;;;;;;;;;;;;;;;28.80;22.85;101395.38;5099646;28;886;-39
2021/01/10 08:05:13;;;;;;;;;;;;;;;29.92;21.65;101386.88;5098799;28;775;-42
2021/01/10 08:07:38;;;;;;;;;;;;;;;29.80;21.52;101391.91;5098739;28;913;-42
2021/01/10 08:10:03;;;;;;;;;;;;;;;29.40;21.77;101383.09;5097704;28;1969;-36
2021/01/10 08:12:32;;;;;;;;;;;;;;;28.53;22.68;101392.16;5097132;28;842;-34
2021/01/10 08:15:03;;;;;;;;;;;;;;;29.18;21.73;101397.34;5099419;28;818;-40
2021/01/10 08:17:29;;;;;;;;;;;;;;;29.39;21.73;101400.41;5098924;28;1213;-34
2021/01/10 08:19:54;;;;;;;;;;;;;;;29.91;21.13;101408.75;5097306;28;822;-41
2021/01/10 08:22:19;;;;;;;;;;;;;;;29.68;21.58;101404.22;5097340;28;993;-41
2021/01/10 08:24:44;;;;;;;;;;;;;;;29.81;21.38;101404.41;5098568;28;1340;-31
2021/01/10 08:27:10;;;;;;;;;;;;;;;29.52;21.57;101400.63;5098543;28;854;-32
2021/01/10 08:29:35;;;;;;;;;;;;;;;29.32;22.00;101394.88;5099104;28;767;-36
2021/01/10 08:32:00;;;;;;;;;;;;;;;29.90;21.39;101402.47;5097052;28;1917;-32
2021/01/10 08:34:25;;;;;;;;;;;;;;;30.08;21.46;101411.28;5097178;28;803;-33
2021/01/10 08:36:51;;;;;;;;;;;;;;;29.23;22.33;101399.50;5098283;28;1012;-42
2021/01/10 08:39:18;;;;;;;;;;;;;;;29.32;22.43;101392.16;5098588;28;779;-33
2021/01/10 08:41:45;;;;;;;;;;;;;;;30.01;21.54;101392.19;5098331;28;811;-32
2021/01/10 08:44:10;;;;;;;;;;;;;;;29.65;21.97;101397.31;5098664;28;822;-35
2021/01/10 08:46:36;;;;;;;;;;;;;;;29.47;22.17;101413.88;5097892;28;894;-33
2021/01/10 08:49:01;;;;;;;;;;;;;;;28.98;23.03;101418.66;5098379;28;850;-35
2021/01/10 08:51:33;;;;;;;;;;;;;;;29.00;23.15;101427.44;5097966;28;1901;-33
2021/01/10 08:54:02;;;;;;;;;;;;;;;29.91;21.99;101425.84;5097528;28;847;-33
2021/01/10 08:56:28;;;;;;;;;;;;;;;29.57;22.06;101416.34;5097917;28;771;-30
2021/01/10 08:58:54;;;;;;;;;;;;;;;29.28;22.17;101421.47;5098130;28;784;-33
2021/01/10 09:01:20;;;;;;;;;;;;;;;28.43;23.25;101413.16;5097940;28;867;-42
2021/01/10 09:03:58;;;;;;;;;;;;;;;28.87;22.87;101409.06;5098011;28;839;-35
2021/01/10 09:06:24;;;;;;;;;;;;;;;28.55;23.26;101417.19;5096913;28;1248;-34
2021/01/10 09:08:50;;;;;;;;;;;;;;;29.08;22.65;101415.69;5093732;28;1180;-39
2021/01/10 09:11:15;;;;;;;;;;;;;;;29.94;21.69;101420.06;5095765;28;1897;-35
2021/01/10 09:13:41;;;;;;;;;;;;;;;29.52;22.08;101397.91;5096733;28;1288;-34
2021/01/10 09:16:07;;;;;;;;;;;;;;;29.33;22.50;101391.13;5096724;28;1248;-41
2021/01/10 09:18:35;;;;;;;;;;;;;;;28.72;23.38;101388.16;5094996;28;1375;-32
2021/01/10 09:21:01;;;;;;;;;;;;;;;29.85;22.02;101380.50;5093385;28;1314;-35
2021/01/10 09:23:26;;;;;;;;;;;;;;;30.19;21.44;101384.53;5095037;28;1367;-43
2021/01/10 09:25:51;;;;;;;;;;;;;;;29.38;21.50;101377.88;5097060;28;1318;-42
2021/01/10 09:28:17;;;;;;;;;;;;;;;28.71;22.35;101378.34;5096973;28;831;-34
2021/01/10 09:30:45;;;;;;;;;;;;;;;29.19;22.29;101380.09;5097630;28;1975;-32
2021/01/10 09:33:11;;;;;;;;;;;;;;;28.52;23.33;101384.22;5097659;28;853;-31
2021/01/10 09:35:43;;;;;;;;;;;;;;;29.54;22.24;101389.59;5097075;28;766;-32
2021/01/10 09:38:09;;;;;;;;;;;;;;;29.78;21.91;101385.00;5097286;28;993;-32
2021/01/10 09:40:34;;;;;;;;;;;;;;;29.31;22.39;101368.81;5097481;28;759;-37
2021/01/10 09:42:59;;;;;;;;;;;;;;;29.20;22.61;101372.78;5096934;28;779;-33
2021/01/10 09:45:32;;;;;;;;;;;;;;;29.83;21.93;101368.97;5097468;28;786;-35
2021/01/10 09:47:57;;;;;;;;;;;;;;;29.34;22.63;101369.25;5097250;28;976;-33
2021/01/10 09:50:22;;;;;;;;;;;;;;;29.68;22.34;101364.41;5097068;28;1894;-34
2021/01/10 09:52:51;;;;;;;;;;;;;;;29.81;22.53;101357.50;5096712;28;953;-30
2021/01/10 09:55:17;;;;;;;;;;;;;;;29.83;22.15;101352.72;5096930;28;831;-38
2021/01/10 09:57:42;;;;;;;;;;;;;;;29.55;22.60;101361.44;5096724;28;787;-33
2021/01/10 10:00:13;;;;;;;;;;;;;;;28.99;23.40;101368.91;5097196;28;771;-34
2021/01/10 10:02:39;;;;;;;;;;;;;;;29.40;22.85;101373.13;5096631;28;827;-35
2021/01/10 10:05:10;;;;;;;;;;;;;;;29.94;22.17;101363.13;5096124;28;775;-38
2021/01/10 10:07:36;;;;;;;;;;;;;;;29.89;21.95;101360.13;5096542;28;988;-33
2021/01/10 10:10:03;;;;;;;;;;;;;;;29.31;22.88;101356.06;5096683;28;913;-39
2021/01/10 10:12:28;;;;;;;;;;;;;;;29.29;22.97;101351.88;5096502;28;1988;-33
2021/01/10 10:14:54;;;;;;;;;;;;;;;28.80;23.83;101356.63;5097253;28;792;-33
2021/01/10 10:17:19;;;;;;;;;;;;;;;28.99;23.46;101351.78;5096889;28;1133;-29
2021/01/10 10:19:45;;;;;;;;;;;;;;;29.29;22.94;101341.03;5096472;28;751;-43
2021/01/10 10:22:24;;;;;;;;;;;;;;;28.94;22.96;101338.75;5096263;28;953;-44
2021/01/10 10:24:49;;;;;;;;;;;;;;;28.90;22.77;101353.69;5096396;28;1189;-40
2021/01/10 10:27:15;;;;;;;;;;;;;;;29.00;23.04;101365.16;5096457;28;878;-41
2021/01/10 10:29:40;;;;;;;;;;;;;;;28.67;23.48;101360.78;5095751;28;1337;-39
2021/01/10 10:32:05;;;;;;;;;;;;;;;29.11;22.59;101352.22;5095345;28;1972;-42
2021/01/10 10:34:31;;;;;;;;;;;;;;;29.68;22.42;101356.25;5094748;28;1272;-43
2021/01/10 10:36:59;;;;;;;;;;;;;;;29.36;22.28;101354.69;5095129;28;1393;-35
2021/01/10 10:39:25;;;;;;;;;;;;;;;29.26;22.55;101368.50;5096341;28;817;-43
2021/01/10 10:41:50;;;;;;;;;;;;;;;28.36;24.08;101380.59;5095150;28;1047;-30
2021/01/10 10:44:15;;;;;;;;;;;;;;;29.07;23.61;101384.22;5096046;28;1365;-33
2021/01/10 10:46:41;;;;;;;;;;;;;;;29.63;22.43;101368.72;5096371;28;814;-33
2021/01/10 10:49:06;;;;;;;;;;;;;;;26.17;20.29;101364.41;5096140;28;779;-31
2021/01/10 10:51:32;;;;;;;;;;;;;;;27.58;22.83;101373.81;5096014;28;1972;-30
2021/01/10 10:53:57;;;;;;;;;;;;;;;28.98;21.54;101363.66;5096036;28;870;-30
2021/01/10 10:56:22;;;;;;;;;;;;;;;28.73;22.12;101365.47;5096157;28;834;-31
2021/01/10 10:58:47;;;;;;;;;;;;;;;29.21;21.20;101358.22;5096243;28;834;-35
2021/01/10 11:01:13;;;;;;;;;;;;;;;28.41;22.54;101358.41;5096640;28;803;-34
2021/01/10 11:03:38;;;;;;;;;;;;;;;29.49;21.23;101360.34;5096383;28;819;-34
2021/01/10 11:06:03;;;;;;;;;;;;;;;29.88;20.98;101368.44;5096159;28;814;-35
2021/01/10 11:08:29;;;;;;;;;;;;;;;29.53;21.11;101355.41;5096246;28;925;-34
2021/01/10 11:10:54;;;;;;;;;;;;;;;29.16;21.49;101353.31;5096013;28;1975;-39
2021/01/10 11:13:19;;;;;;;;;;;;;;;29.31;21.83;101366.91;5096760;28;815;-43
2021/01/10 11:15:46;;;;;;;;;;;;;;;29.57;21.67;101365.69;5096396;28;784;-34
2021/01/10 11:18:11;;;;;;;;;;;;;;;29.45;21.43;101369.84;5099107;28;1134;-30
2021/01/10 11:20:36;;;;;;;;;;;;;;;29.28;21.88;101361.03;5099958;28;854;-33
2021/01/10 11:23:02;;;;;;;;;;;;;;;29.50;21.66;101350.31;5099774;28;946;-34
2021/01/10 11:25:27;;;;;;;;;;;;;;;28.62;22.99;101336.09;5099399;28;1111;-34
2021/01/10 11:27:52;;;;;;;;;;;;;;;29.58;21.78;101329.41;5100154;28;827;-37
2021/01/10 11:30:18;;;;;;;;;;;;;;;29.31;21.87;101330.88;5100213;28;1914;-42
2021/01/10 11:32:43;;;;;;;;;;;;;;;29.62;21.61;101337.19;5099523;28;739;-38
2021/01/10 11:35:08;;;;;;;;;;;;;;;29.68;21.44;101331.00;5099834;28;822;-34
2021/01/10 11:37:34;;;;;;;;;;;;;;;29.40;22.02;101337.88;5099460;28;1080;-35
2021/01/10 11:39:59;;;;;;;;;;;;;;;29.32;21.83;101333.41;5099410;28;802;-33
2021/01/10 11:42:24;;;;;;;;;;;;;;;29.54;21.96;101322.69;5099730;28;775;-39
2021/01/10 11:44:56;;;;;;;;;;;;;;;29.81;21.57;101303.25;5099792;28;802;-35
2021/01/10 11:47:25;;;;;;;;;;;;;;;29.63;21.91;101309.06;5098811;28;1196;-42
2021/01/10 11:49:50;;;;;;;;;;;;;;;29.38;21.83;101303.88;5099338;28;852;-34
2021/01/10 11:52:16;;;;;;;;;;;;;;;29.53;21.76;101312.03;5099214;28;1969;-34
2021/01/10 11:54:41;;;;;;;;;;;;;;;29.56;21.96;101296.22;5098921;28;822;-34
2021/01/10 11:57:06;;;;;;;;;;;;;;;29.92;21.37;101291.94;5099840;28;819;-36
2021/01/10 11:59:32;;;;;;;;;;;;;;;29.24;22.43;101295.53;5099348;28;755;-36
2021/01/10 12:01:57;;;;;;;;;;;;;;;29.82;21.61;101316.63;5099223;28;890;-35
2021/01/10 12:04:22;;;;;;;;;;;;;;;29.64;21.95;101318.88;5099394;28;803;-35
2021/01/10 12:06:47;;;;;;;;;;;;;;;29.32;22.36;101303.59;5098738;28;949;-34
2021/01/10 12:09:14;;;;;;;;;;;;;;;29.49;22.03;101300.72;5098759;28;810;-41
2021/01/10 12:11:39;;;;;;;;;;;;;;;29.64;22.23;101314.31;5099554;28;1977;-35
2021/01/10 12:14:05;;;;;;;;;;;;;;;29.85;21.94;101311.84;5099450;28;811;-40
2021/01/10 12:16:30;;;;;;;;;;;;;;;29.59;21.90;101311.31;5098633;28;1118;-34
2021/01/10 12:18:55;;;;;;;;;;;;;;;29.37;22.07;101316.56;5099197;28;767;-36
2021/01/10 12:21:21;;;;;;;;;;;;;;;29.56;22.16;101317.88;5098614;28;950;-35
2021/01/10 12:23:46;;;;;;;;;;;;;;;29.88;21.74;101317.72;5097380;28;1166;-35
2021/01/10 12:26:15;;;;;;;;;;;;;;;29.99;21.59;101307.44;5098979;28;820;-33
2021/01/10 12:28:40;;;;;;;;;;;;;;;29.54;22.50;101309.13;5097800;28;797;-45
2021/01/10 12:31:06;;;;;;;;;;;;;;;30.00;21.92;101317.25;5098740;28;1910;-32
2021/01/10 12:33:31;;;;;;;;;;;;;;;29.59;21.62;101308.59;5098794;28;752;-34
2021/01/10 12:35:57;;;;;;;;;;;;;;;28.85;22.54;101298.22;5098582;28;840;-34
2021/01/10 12:38:22;;;;;;;;;;;;;;;29.07;22.95;101287.56;5097895;28;961;-33
2021/01/10 12:40:47;;;;;;;;;;;;;;;29.21;22.38;101280.47;5098503;28;885;-32
2021/01/10 12:43:12;;;;;;;;;;;;;;;29.61;22.11;101287.56;5098469;28;771;-36
2021/01/10 12:45:38;;;;;;;;;;;;;;;28.84;23.18;101274.03;5098575;28;850;-34
2021/01/10 12:48:03;;;;;;;;;;;;;;;29.65;21.83;101274.44;5098069;28;755;-42
2021/01/10 12:50:29;;;;;;;;;;;;;;;29.60;22.01;101280.44;5097879;28;1902;-33